createdAt,value
2022-09-27T00:01:12.898Z,13.45
2022-09-27T00:03:40.323Z,13.38
2022-09-27T00:06:08.120Z,13.36
2022-09-27T00:08:36.817Z,13.38
2022-09-27T00:11:14.935Z,13.35
2022-09-27T00:13:41.851Z,13.37
2022-09-27T00:16:10.540Z,13.35
2022-09-27T00:18:38.113Z,13.35
2022-09-27T00:21:11.826Z,13.38
2022-09-27T00:23:39.990Z,13.36
2022-09-27T00:26:08.904Z,13.36
2022-09-27T00:28:36.052Z,13.53
2022-09-27T00:31:03.899Z,13.42
2022-09-27T00:33:31.020Z,13.37
2022-09-27T00:36:06.108Z,13.52
2022-09-27T00:38:33.090Z,13.58
2022-09-27T00:41:00.102Z,13.49
2022-09-27T00:43:27.135Z,13.52
2022-09-27T00:45:59.399Z,13.55
2022-09-27T00:48:31.756Z,13.45
2022-09-27T00:51:05.496Z,13.33
2022-09-27T00:53:46.590Z,13.29
2022-09-27T00:56:22.426Z,13.24
2022-09-27T00:59:16.049Z,13.30
2022-09-27T01:01:44.009Z,13.25
2022-09-27T01:04:14.806Z,13.31
2022-09-27T01:06:41.764Z,13.34
2022-09-27T01:09:11.270Z,13.26
2022-09-27T01:11:56.065Z,13.29
2022-09-27T01:14:58.897Z,13.23
2022-09-27T01:18:01.870Z,13.40
2022-09-27T01:20:52.849Z,13.49
2022-09-27T01:24:01.276Z,13.33
2022-09-27T01:26:49.959Z,13.37
2022-09-27T01:30:19.382Z,13.34
2022-09-27T01:33:07.736Z,13.32
2022-09-27T01:35:44.064Z,13.29
2022-09-27T01:38:45.317Z,13.31
2022-09-27T01:41:43.383Z,13.30
2022-09-27T01:44:30.111Z,13.42
2022-09-27T01:47:03.909Z,13.34
2022-09-27T01:50:06.307Z,13.41
2022-09-27T01:52:55.025Z,13.34
2022-09-27T01:55:28.779Z,13.31
2022-09-27T01:58:25.020Z,13.19
2022-09-27T02:00:54.573Z,13.18
2022-09-27T02:03:27.806Z,13.15
2022-09-27T02:06:01.674Z,13.16
2022-09-27T02:08:53.559Z,13.17
2022-09-27T02:11:20.773Z,13.13
2022-09-27T02:13:59.025Z,13.09
2022-09-27T02:16:53.707Z,13.15
2022-09-27T02:19:40.438Z,13.13
2022-09-27T02:22:21.540Z,13.21
2022-09-27T02:24:59.217Z,13.23
2022-09-27T02:27:47.418Z,13.15
2022-09-27T02:30:16.437Z,13.19
2022-09-27T02:32:44.054Z,13.21
2022-09-27T02:35:20.933Z,13.15
2022-09-27T02:37:48.800Z,13.16
2022-09-27T02:40:17.005Z,13.09
2022-09-27T02:42:45.970Z,13.17
2022-09-27T02:45:15.959Z,13.09
2022-09-27T02:48:13.578Z,13.06
2022-09-27T02:51:17.771Z,13.15
2022-09-27T02:54:12.458Z,13.08
2022-09-27T02:57:13.475Z,13.08
2022-09-27T03:00:09.580Z,13.02
2022-09-27T03:03:00.823Z,12.93
2022-09-27T03:05:34.317Z,12.94
2022-09-27T03:08:01.566Z,12.93
2022-09-27T03:10:30.610Z,12.89
2022-09-27T03:13:00.760Z,12.89
2022-09-27T03:15:27.874Z,12.91
2022-09-27T03:17:57.448Z,12.89
2022-09-27T03:20:24.420Z,12.96
2022-09-27T03:22:51.326Z,12.80
2022-09-27T03:25:19.632Z,12.92
2022-09-27T03:27:46.597Z,12.83
2022-09-27T03:30:14.986Z,12.92
2022-09-27T03:32:45.939Z,12.95
2022-09-27T03:35:14.234Z,12.84
2022-09-27T03:37:41.541Z,12.95
2022-09-27T03:40:09.715Z,12.94
2022-09-27T03:42:36.718Z,13.02
2022-09-27T03:45:04.060Z,12.77
2022-09-27T03:47:30.954Z,12.80
2022-09-27T03:49:57.912Z,12.89
2022-09-27T03:52:24.897Z,12.80
2022-09-27T03:54:51.901Z,12.82
2022-09-27T03:57:18.869Z,12.86
2022-09-27T03:59:45.782Z,12.87
2022-09-27T04:02:12.775Z,12.90
2022-09-27T04:04:39.896Z,12.88
2022-09-27T04:07:06.886Z,12.81
2022-09-27T04:09:33.796Z,12.94
2022-09-27T04:12:00.987Z,12.91
2022-09-27T04:14:27.890Z,12.93
2022-09-27T04:16:54.919Z,12.96
2022-09-27T04:19:22.314Z,12.91
2022-09-27T04:21:49.260Z,12.98
2022-09-27T04:24:16.154Z,12.98
2022-09-27T04:26:43.106Z,12.93
2022-09-27T04:29:10.343Z,13.03
2022-09-27T04:31:38.006Z,13.02
2022-09-27T04:34:07.236Z,12.92
2022-09-27T04:36:34.646Z,12.82
2022-09-27T04:39:05.636Z,12.87
2022-09-27T04:41:33.100Z,12.84
2022-09-27T04:44:03.626Z,12.94
2022-09-27T04:46:31.687Z,13.00
2022-09-27T04:49:02.113Z,12.86
2022-09-27T04:51:29.311Z,12.75
2022-09-27T04:53:58.212Z,12.86
2022-09-27T04:56:25.470Z,12.81
2022-09-27T04:58:52.410Z,12.85
2022-09-27T05:01:19.466Z,12.89
2022-09-27T05:03:46.629Z,12.86
2022-09-27T05:06:13.614Z,12.91
2022-09-27T05:08:40.587Z,12.87
2022-09-27T05:11:07.536Z,12.81
2022-09-27T05:13:34.665Z,12.83
2022-09-27T05:16:04.320Z,12.91
2022-09-27T05:18:31.389Z,12.64
2022-09-27T05:20:59.213Z,12.68
2022-09-27T05:23:27.291Z,12.61
2022-09-27T05:25:56.516Z,12.65
2022-09-27T05:28:27.103Z,12.73
2022-09-27T05:30:54.115Z,12.78
2022-09-27T05:33:21.118Z,12.68
2022-09-27T05:35:56.188Z,12.64
2022-09-27T05:38:25.273Z,12.88
2022-09-27T05:40:52.438Z,12.76
2022-09-27T05:43:20.145Z,12.78
2022-09-27T05:45:47.516Z,12.73
2022-09-27T05:48:14.721Z,12.75
2022-09-27T05:50:41.878Z,12.85
2022-09-27T05:53:10.774Z,12.80
2022-09-27T05:55:37.970Z,12.71
2022-09-27T05:58:08.714Z,12.87
2022-09-27T06:00:35.927Z,12.92
2022-09-27T06:03:05.762Z,12.92
2022-09-27T06:05:37.580Z,13.26
2022-09-27T06:08:08.320Z,12.59
2022-09-27T06:10:35.979Z,12.95
2022-09-27T06:13:12.289Z,12.93
2022-09-27T06:15:43.196Z,12.98
2022-09-27T06:18:14.345Z,12.94
2022-09-27T06:20:43.048Z,12.88
2022-09-27T06:23:19.397Z,13.09
2022-09-27T06:25:47.305Z,13.04
2022-09-27T06:28:14.611Z,12.80
2022-09-27T06:30:45.146Z,12.91
2022-09-27T06:33:20.398Z,13.03
2022-09-27T06:35:49.412Z,13.06
2022-09-27T06:38:18.518Z,13.14
2022-09-27T06:40:46.194Z,13.05
2022-09-27T06:43:20.466Z,12.98
2022-09-27T06:45:47.993Z,13.13
2022-09-27T06:48:17.995Z,13.22
2022-09-27T06:50:47.914Z,13.12
2022-09-27T06:53:17.258Z,12.80
2022-09-27T06:55:44.337Z,13.08
2022-09-27T06:58:30.968Z,12.79
2022-09-27T07:00:58.891Z,12.78
2022-09-27T07:03:35.477Z,12.96
2022-09-27T07:06:07.033Z,12.97
2022-09-27T07:08:36.002Z,12.94
2022-09-27T07:11:08.136Z,12.92
2022-09-27T07:13:40.229Z,12.95
2022-09-27T07:16:07.755Z,12.79
2022-09-27T07:18:34.772Z,12.98
2022-09-27T07:21:01.869Z,13.09
2022-09-27T07:23:29.213Z,13.19
2022-09-27T07:25:56.250Z,13.05
2022-09-27T07:28:23.437Z,12.88
2022-09-27T07:30:54.940Z,12.87
2022-09-27T07:33:22.284Z,12.86
2022-09-27T07:35:49.390Z,12.78
2022-09-27T07:38:16.630Z,12.88
2022-09-27T07:40:44.270Z,12.60
2022-09-27T07:43:12.390Z,12.72
2022-09-27T07:45:40.001Z,12.78
2022-09-27T07:48:15.066Z,12.86
2022-09-27T07:50:42.352Z,12.83
2022-09-27T07:53:12.789Z,12.91
2022-09-27T07:55:40.822Z,12.87
2022-09-27T07:58:11.386Z,12.83
2022-09-27T08:00:40.970Z,12.86
2022-09-27T08:03:16.681Z,12.90
2022-09-27T08:05:47.276Z,13.10
2022-09-27T08:08:16.739Z,13.04
2022-09-27T08:10:46.695Z,13.03
2022-09-27T08:13:18.054Z,13.17
2022-09-27T08:15:45.006Z,13.11
2022-09-27T08:18:12.525Z,13.13
2022-09-27T08:20:40.220Z,12.95
2022-09-27T08:23:07.378Z,13.28
2022-09-27T08:25:34.712Z,13.33
2022-09-27T08:28:06.815Z,13.32
2022-09-27T08:30:33.835Z,13.50
2022-09-27T08:33:03.412Z,13.47
2022-09-27T08:35:34.065Z,13.49
2022-09-27T08:38:03.103Z,13.08
2022-09-27T08:41:09.466Z,13.32
2022-09-27T08:44:01.853Z,13.23
2022-09-27T08:46:37.629Z,13.36
2022-09-27T08:49:19.427Z,13.85
2022-09-27T08:51:50.770Z,13.69
2022-09-27T08:54:25.905Z,13.85
2022-09-27T08:57:07.199Z,14.21
2022-09-27T08:59:59.270Z,14.08
2022-09-27T09:02:27.356Z,14.34
2022-09-27T09:05:03.152Z,14.28
2022-09-27T09:08:08.507Z,14.50
2022-09-27T09:11:26.465Z,14.20
2022-09-27T09:14:25.428Z,14.09
2022-09-27T09:17:28.927Z,14.28
2022-09-27T09:20:33.094Z,14.38
2022-09-27T09:23:10.923Z,14.38
2022-09-27T09:26:27.210Z,14.58
2022-09-27T09:29:21.044Z,15.11
2022-09-27T09:32:18.898Z,15.09
2022-09-27T09:34:59.602Z,15.47
2022-09-27T09:37:49.796Z,15.71
2022-09-27T09:40:44.723Z,15.34
2022-09-27T09:43:25.828Z,15.28
2022-09-27T09:46:05.592Z,15.29
2022-09-27T09:49:02.937Z,15.29
2022-09-27T09:51:40.726Z,15.01
2022-09-27T09:54:20.828Z,14.83
2022-09-27T09:57:12.867Z,14.91
2022-09-27T09:59:48.145Z,14.88
2022-09-27T10:02:35.811Z,15.08
2022-09-27T10:05:07.915Z,15.03
2022-09-27T10:07:39.140Z,15.26
2022-09-27T10:10:10.959Z,15.05
2022-09-27T10:12:38.024Z,15.03
2022-09-27T10:15:06.257Z,15.02
2022-09-27T10:17:42.670Z,15.14
2022-09-27T10:20:47.113Z,15.38
2022-09-27T10:23:21.369Z,15.01
2022-09-27T10:25:58.893Z,14.93
2022-09-27T10:28:42.634Z,15.07
2022-09-27T10:31:14.352Z,14.90
2022-09-27T10:34:02.090Z,15.03
2022-09-27T10:36:35.711Z,15.00
2022-09-27T10:39:07.091Z,15.00
2022-09-27T10:41:42.085Z,15.06
2022-09-27T10:44:36.055Z,15.15
2022-09-27T10:47:16.542Z,14.83
2022-09-27T10:49:43.594Z,14.93
2022-09-27T10:52:24.665Z,15.03
2022-09-27T10:55:05.054Z,14.99
2022-09-27T10:57:32.532Z,14.55
2022-09-27T11:00:08.449Z,14.68
2022-09-27T11:02:37.869Z,14.78
2022-09-27T11:05:24.038Z,14.72
2022-09-27T11:07:57.486Z,14.40
2022-09-27T11:10:37.431Z,14.31
2022-09-27T11:13:16.294Z,14.37
2022-09-27T11:16:14.258Z,14.36
2022-09-27T11:19:00.449Z,14.39
2022-09-27T11:22:06.264Z,14.25
2022-09-27T11:24:38.555Z,14.43
2022-09-27T11:27:32.280Z,14.48
2022-09-27T11:30:19.509Z,14.47
2022-09-27T11:33:01.634Z,14.37
2022-09-27T11:35:51.862Z,14.43
2022-09-27T11:38:52.335Z,14.45
2022-09-27T11:41:58.355Z,14.50
2022-09-27T11:44:44.970Z,14.81
2022-09-27T11:47:57.304Z,14.85
2022-09-27T11:51:01.555Z,14.90
2022-09-27T11:53:50.041Z,15.06
2022-09-27T11:56:49.628Z,15.37
2022-09-27T11:59:56.820Z,15.24
2022-09-27T12:02:38.913Z,15.23
2022-09-27T12:05:43.571Z,15.20
2022-09-27T12:09:02.791Z,15.07
2022-09-27T12:11:46.630Z,15.19
2022-09-27T12:15:07.265Z,15.21
2022-09-27T12:17:40.060Z,15.46
2022-09-27T12:20:17.027Z,15.43
2022-09-27T12:23:20.379Z,15.76
2022-09-27T12:25:54.508Z,15.61
2022-09-27T12:29:05.717Z,15.23
2022-09-27T12:31:54.842Z,15.19
2022-09-27T12:34:49.288Z,15.47
2022-09-27T12:37:48.844Z,15.18
2022-09-27T12:40:30.907Z,15.44
2022-09-27T12:43:18.055Z,15.63
2022-09-27T12:46:18.989Z,15.60
2022-09-27T12:49:27.122Z,15.17
2022-09-27T12:52:08.169Z,15.30
2022-09-27T12:54:49.908Z,15.31
2022-09-27T12:57:35.202Z,15.29
2022-09-27T13:00:18.065Z,15.39
2022-09-27T13:03:18.748Z,15.72
2022-09-27T13:06:06.027Z,15.51
2022-09-27T13:08:54.193Z,15.78
2022-09-27T13:11:28.546Z,16.16
2022-09-27T13:14:01.616Z,16.13
2022-09-27T13:16:28.846Z,16.10
2022-09-27T13:19:05.770Z,15.93
2022-09-27T13:21:56.382Z,15.84
2022-09-27T13:24:40.707Z,15.70
2022-09-27T13:27:29.322Z,15.83
2022-09-27T13:30:08.524Z,15.93
2022-09-27T13:32:36.595Z,15.92
2022-09-27T13:35:23.225Z,15.77
2022-09-27T13:37:59.542Z,15.65
2022-09-27T13:40:36.451Z,15.46
2022-09-27T13:43:11.055Z,15.62
2022-09-27T13:45:59.577Z,15.60
2022-09-27T13:49:02.420Z,15.94
2022-09-27T13:51:49.453Z,16.21
2022-09-27T13:54:39.526Z,16.11
2022-09-27T13:57:47.727Z,15.99
2022-09-27T14:00:54.792Z,15.63
2022-09-27T14:03:42.595Z,15.23
2022-09-27T14:06:18.713Z,15.06
2022-09-27T14:08:57.776Z,15.10
2022-09-27T14:11:42.440Z,14.96
2022-09-27T14:14:19.335Z,14.93
2022-09-27T14:16:47.627Z,15.27
2022-09-27T14:19:24.285Z,15.08
2022-09-27T14:21:52.157Z,15.14
2022-09-27T14:24:33.601Z,15.28
2022-09-27T14:27:19.252Z,15.39
2022-09-27T14:30:01.831Z,15.31
2022-09-27T14:32:32.377Z,15.16
2022-09-27T14:35:32.238Z,15.14
2022-09-27T14:38:15.781Z,15.24
2022-09-27T14:41:03.614Z,15.15
2022-09-27T14:43:33.162Z,15.21
2022-09-27T14:46:07.087Z,15.31
2022-09-27T14:48:35.830Z,15.20
2022-09-27T14:51:20.709Z,15.33
2022-09-27T14:53:57.069Z,15.23
2022-09-27T14:56:44.381Z,15.18
2022-09-27T14:59:30.797Z,15.25
2022-09-27T15:02:01.277Z,15.26
2022-09-27T15:04:32.211Z,15.43
2022-09-27T15:07:01.813Z,15.40
2022-09-27T15:09:32.940Z,15.37
2022-09-27T15:12:02.464Z,15.28
2022-09-27T15:14:33.432Z,15.28
2022-09-27T15:17:05.654Z,15.11
2022-09-27T15:19:34.586Z,15.17
2022-09-27T15:22:33.200Z,15.24
2022-09-27T15:25:42.711Z,15.12
2022-09-27T15:28:12.273Z,15.16
2022-09-27T15:30:42.533Z,15.40
2022-09-27T15:33:28.858Z,15.18
2022-09-27T15:36:05.856Z,14.99
2022-09-27T15:38:46.281Z,15.23
2022-09-27T15:41:20.343Z,15.17
2022-09-27T15:43:52.655Z,15.01
2022-09-27T15:46:22.757Z,15.09
2022-09-27T15:49:22.851Z,14.99
2022-09-27T15:51:54.268Z,15.31
2022-09-27T15:54:23.819Z,15.25
2022-09-27T15:56:55.568Z,14.87
2022-09-27T15:59:28.792Z,14.97
2022-09-27T16:02:10.059Z,14.80
2022-09-27T16:04:36.984Z,14.89
2022-09-27T16:07:09.087Z,14.68
2022-09-27T16:09:36.767Z,14.86
2022-09-27T16:12:03.757Z,14.72
2022-09-27T16:14:30.691Z,14.75
2022-09-27T16:17:00.917Z,15.03
2022-09-27T16:19:27.875Z,14.82
2022-09-27T16:21:55.471Z,14.64
2022-09-27T16:24:23.869Z,14.47
2022-09-27T16:26:50.868Z,14.73
2022-09-27T16:29:17.957Z,14.53
2022-09-27T16:31:45.278Z,14.52
2022-09-27T16:34:13.350Z,14.46
2022-09-27T16:36:41.073Z,14.47
2022-09-27T16:39:12.836Z,14.52
2022-09-27T16:41:43.790Z,14.51
2022-09-27T16:44:14.044Z,14.60
2022-09-27T16:46:42.703Z,14.71
2022-09-27T16:49:29.706Z,14.74
2022-09-27T16:51:59.888Z,14.53
2022-09-27T16:54:30.789Z,14.45
2022-09-27T16:56:59.518Z,14.52
2022-09-27T16:59:27.286Z,14.54
2022-09-27T17:01:58.659Z,14.53
2022-09-27T17:04:27.897Z,14.55
2022-09-27T17:06:57.191Z,14.39
2022-09-27T17:09:25.125Z,14.40
2022-09-27T17:11:52.351Z,14.23
2022-09-27T17:14:19.673Z,14.19
2022-09-27T17:16:48.490Z,14.23
2022-09-27T17:19:18.649Z,14.07
2022-09-27T17:21:46.725Z,14.21
2022-09-27T17:24:14.098Z,14.17
2022-09-27T17:26:41.811Z,14.19
2022-09-27T17:29:12.201Z,14.16
2022-09-27T17:31:41.382Z,14.21
2022-09-27T17:34:14.156Z,14.03
2022-09-27T17:36:44.339Z,14.10
2022-09-27T17:39:17.481Z,14.05
2022-09-27T17:41:44.721Z,13.86
2022-09-27T17:44:15.366Z,13.86
2022-09-27T17:46:44.723Z,13.98
2022-09-27T17:49:32.404Z,14.02
2022-09-27T17:51:59.706Z,13.89
2022-09-27T17:54:28.320Z,13.83
2022-09-27T17:56:56.585Z,13.77
2022-09-27T17:59:23.830Z,13.77
2022-09-27T18:01:51.093Z,13.76
2022-09-27T18:04:20.027Z,13.87
2022-09-27T18:06:47.657Z,13.71
2022-09-27T18:09:17.368Z,13.73
2022-09-27T18:11:45.368Z,13.66
2022-09-27T18:14:12.592Z,13.85
2022-09-27T18:16:43.244Z,13.59
2022-09-27T18:19:17.311Z,13.38
2022-09-27T18:21:44.845Z,13.47
2022-09-27T18:24:14.478Z,13.41
2022-09-27T18:26:41.937Z,13.26
2022-09-27T18:29:16.771Z,13.19
2022-09-27T18:31:48.460Z,13.07
2022-09-27T18:34:19.641Z,13.11
2022-09-27T18:36:47.263Z,13.08
2022-09-27T18:39:20.173Z,13.13
2022-09-27T18:41:49.515Z,13.36
2022-09-27T18:44:18.949Z,13.19
2022-09-27T18:46:46.803Z,13.18
2022-09-27T18:49:15.481Z,13.02
2022-09-27T18:51:44.994Z,12.93
2022-09-27T18:54:19.374Z,13.00
2022-09-27T18:56:48.573Z,13.18
2022-09-27T18:59:17.346Z,13.21
2022-09-27T19:01:46.045Z,13.28
2022-09-27T19:04:21.487Z,13.37
2022-09-27T19:06:52.010Z,13.32
2022-09-27T19:09:19.129Z,13.16
2022-09-27T19:11:46.576Z,13.10
2022-09-27T19:14:20.401Z,12.77
2022-09-27T19:16:48.450Z,12.88
2022-09-27T19:19:20.295Z,13.13
2022-09-27T19:21:48.423Z,12.95
2022-09-27T19:24:16.015Z,13.07
2022-09-27T19:26:43.410Z,13.10
2022-09-27T19:29:11.640Z,13.21
2022-09-27T19:31:38.842Z,13.14
2022-09-27T19:34:05.919Z,13.19
2022-09-27T19:36:32.886Z,13.20
2022-09-27T19:39:01.307Z,13.29
2022-09-27T19:41:28.566Z,13.24
2022-09-27T19:43:56.985Z,13.36
2022-09-27T19:46:25.588Z,13.41
2022-09-27T19:48:53.621Z,13.05
2022-09-27T19:51:26.655Z,13.50
2022-09-27T19:53:54.929Z,13.11
2022-09-27T19:56:23.331Z,13.15
2022-09-27T19:58:51.030Z,13.15
2022-09-27T20:01:24.767Z,13.36
2022-09-27T20:03:55.290Z,13.26
2022-09-27T20:06:22.556Z,13.41
2022-09-27T20:08:50.691Z,13.26
2022-09-27T20:11:23.361Z,13.31
2022-09-27T20:13:53.035Z,13.21
2022-09-27T20:16:24.109Z,13.30
2022-09-27T20:18:54.334Z,13.38
2022-09-27T20:21:23.392Z,13.24
2022-09-27T20:23:52.468Z,13.18
2022-09-27T20:26:22.070Z,13.19
2022-09-27T20:28:52.473Z,13.13
2022-09-27T20:31:22.899Z,13.34
2022-09-27T20:33:50.961Z,13.36
2022-09-27T20:36:22.716Z,13.36
2022-09-27T20:38:55.220Z,13.20
2022-09-27T20:41:25.617Z,13.34
2022-09-27T20:43:58.361Z,13.25
2022-09-27T20:46:26.309Z,13.33
2022-09-27T20:48:59.220Z,13.23
2022-09-27T20:51:27.804Z,13.13
2022-09-27T20:53:55.229Z,13.36
2022-09-27T20:56:30.072Z,13.31
2022-09-27T20:58:58.697Z,13.18
2022-09-27T21:01:27.532Z,13.08
2022-09-27T21:04:05.098Z,13.05
2022-09-27T21:06:33.141Z,13.28
2022-09-27T21:09:04.181Z,13.04
2022-09-27T21:11:31.550Z,13.02
2022-09-27T21:13:58.476Z,12.92
2022-09-27T21:16:28.648Z,12.99
2022-09-27T21:18:56.881Z,13.00
2022-09-27T21:21:25.416Z,13.20
2022-09-27T21:24:01.405Z,13.03
2022-09-27T21:26:31.849Z,13.22
2022-09-27T21:29:01.620Z,13.23
2022-09-27T21:31:34.374Z,13.03
2022-09-27T21:34:04.035Z,13.03
2022-09-27T21:36:38.047Z,13.17
2022-09-27T21:39:09.605Z,13.07
2022-09-27T21:41:38.917Z,13.02
2022-09-27T21:44:07.217Z,13.02
2022-09-27T21:46:34.712Z,13.11
2022-09-27T21:49:02.414Z,13.02
2022-09-27T21:51:37.536Z,13.02
2022-09-27T21:54:08.382Z,12.91
2022-09-27T21:56:38.725Z,12.84
2022-09-27T21:59:07.600Z,12.97
2022-09-27T22:01:35.571Z,12.97
2022-09-27T22:04:06.577Z,12.98
2022-09-27T22:06:38.532Z,12.92
2022-09-27T22:09:11.838Z,12.83
2022-09-27T22:11:44.416Z,12.92
2022-09-27T22:14:12.520Z,12.95
2022-09-27T22:16:39.637Z,12.90
2022-09-27T22:19:06.859Z,12.97
2022-09-27T22:21:37.510Z,13.05
2022-09-27T22:24:13.948Z,12.98
2022-09-27T22:26:45.802Z,12.92
2022-09-27T22:29:13.126Z,12.90
2022-09-27T22:31:40.166Z,12.73
2022-09-27T22:34:16.181Z,12.62
2022-09-27T22:36:43.680Z,12.63
2022-09-27T22:39:10.972Z,12.74
2022-09-27T22:41:38.295Z,12.64
2022-09-27T22:44:05.301Z,12.64
2022-09-27T22:46:32.534Z,12.74
2022-09-27T22:48:59.531Z,12.83
2022-09-27T22:51:26.530Z,12.90
2022-09-27T22:53:53.468Z,13.18
2022-09-27T22:56:21.216Z,13.25
2022-09-27T22:58:49.255Z,13.21
2022-09-27T23:01:19.750Z,13.11
2022-09-27T23:03:49.578Z,13.02
2022-09-27T23:06:18.888Z,12.94
2022-09-27T23:08:47.439Z,12.93
2022-09-27T23:11:17.886Z,12.84
2022-09-27T23:13:45.563Z,12.82
2022-09-27T23:16:25.763Z,12.96
2022-09-27T23:18:54.563Z,12.90
2022-09-27T23:21:24.195Z,13.00
2022-09-27T23:23:52.978Z,13.04
2022-09-27T23:26:24.212Z,13.07
2022-09-27T23:29:00.059Z,13.06
2022-09-27T23:31:30.279Z,13.04
2022-09-27T23:33:59.279Z,13.04
2022-09-27T23:36:27.993Z,13.01
2022-09-27T23:39:00.328Z,13.04
2022-09-27T23:41:27.450Z,13.14
2022-09-27T23:43:55.630Z,13.11
2022-09-27T23:46:23.890Z,13.13
2022-09-27T23:48:50.909Z,13.17
2022-09-27T23:59:26.457Z,13.03
